sensor_id;sensor_type;location;lat;lon;timestamp;P1;durP1;ratioP1;P2;durP2;ratioP2
18387;SDS011;9320;50.256;19.026;2023-02-18T00:01:29;13.67;;;8.67;;
18387;SDS011;9320;50.256;19.026;2023-02-18T00:03:58;16.30;;;8.60;;
18387;SDS011;9320;50.256;19.026;2023-02-18T00:06:27;13.23;;;8.07;;
18387;SDS011;9320;50.256;19.026;2023-02-18T00:08:57;16.33;;;9.57;;
18387;SDS011;9320;50.256;19.026;2023-02-18T00:11:28;16.83;;;10.00;;
18387;SDS011;9320;50.256;19.026;2023-02-18T00:13:58;13.53;;;9.10;;
18387;SDS011;9320;50.256;19.026;2023-02-18T00:16:27;14.33;;;9.67;;
18387;SDS011;9320;50.256;19.026;2023-02-18T00:18:58;13.77;;;9.73;;
18387;SDS011;9320;50.256;19.026;2023-02-18T00:21:28;15.57;;;9.40;;
18387;SDS011;9320;50.256;19.026;2023-02-18T00:23:56;12.70;;;8.50;;
18387;SDS011;9320;50.256;19.026;2023-02-18T00:26:25;15.03;;;8.43;;
18387;SDS011;9320;50.256;19.026;2023-02-18T00:28:53;13.57;;;8.43;;
18387;SDS011;9320;50.256;19.026;2023-02-18T00:31:22;13.83;;;7.80;;
18387;SDS011;9320;50.256;19.026;2023-02-18T00:33:53;15.60;;;8.20;;
18387;SDS011;9320;50.256;19.026;2023-02-18T00:36:23;11.90;;;7.47;;
18387;SDS011;9320;50.256;19.026;2023-02-18T00:38:52;13.20;;;7.43;;
18387;SDS011;9320;50.256;19.026;2023-02-18T00:41:22;9.33;;;5.50;;
18387;SDS011;9320;50.256;19.026;2023-02-18T00:43:52;9.53;;;4.90;;
18387;SDS011;9320;50.256;19.026;2023-02-18T00:46:20;8.13;;;5.13;;
18387;SDS011;9320;50.256;19.026;2023-02-18T00:48:49;8.40;;;5.03;;
18387;SDS011;9320;50.256;19.026;2023-02-18T00:51:18;7.40;;;4.90;;
18387;SDS011;9320;50.256;19.026;2023-02-18T00:53:47;8.47;;;5.70;;
18387;SDS011;9320;50.256;19.026;2023-02-18T00:56:15;8.37;;;5.20;;
18387;SDS011;9320;50.256;19.026;2023-02-18T00:58:43;7.20;;;5.20;;
18387;SDS011;9320;50.256;19.026;2023-02-18T01:01:12;6.73;;;5.07;;
18387;SDS011;9320;50.256;19.026;2023-02-18T01:03:40;6.90;;;5.00;;
18387;SDS011;9320;50.256;19.026;2023-02-18T01:06:10;9.60;;;5.50;;
18387;SDS011;9320;50.256;19.026;2023-02-18T01:08:40;11.87;;;5.33;;
18387;SDS011;9320;50.256;19.026;2023-02-18T01:11:09;9.73;;;5.80;;
18387;SDS011;9320;50.256;19.026;2023-02-18T01:13:38;10.13;;;5.97;;
18387;SDS011;9320;50.256;19.026;2023-02-18T01:16:07;10.40;;;6.10;;
18387;SDS011;9320;50.256;19.026;2023-02-18T01:18:36;8.37;;;5.97;;
18387;SDS011;9320;50.256;19.026;2023-02-18T01:21:04;8.47;;;5.67;;
18387;SDS011;9320;50.256;19.026;2023-02-18T01:23:34;10.43;;;6.10;;
18387;SDS011;9320;50.256;19.026;2023-02-18T01:26:04;10.43;;;5.80;;
18387;SDS011;9320;50.256;19.026;2023-02-18T01:28:33;10.27;;;5.50;;
18387;SDS011;9320;50.256;19.026;2023-02-18T01:31:03;8.27;;;5.50;;
18387;SDS011;9320;50.256;19.026;2023-02-18T01:33:33;9.23;;;5.50;;
18387;SDS011;9320;50.256;19.026;2023-02-18T01:36:02;9.80;;;5.53;;
18387;SDS011;9320;50.256;19.026;2023-02-18T01:38:31;5.93;;;5.20;;
18387;SDS011;9320;50.256;19.026;2023-02-18T01:40:59;10.83;;;5.33;;
18387;SDS011;9320;50.256;19.026;2023-02-18T01:43:29;8.30;;;5.37;;
18387;SDS011;9320;50.256;19.026;2023-02-18T01:45:59;6.70;;;5.13;;
18387;SDS011;9320;50.256;19.026;2023-02-18T01:48:45;7.27;;;5.60;;
18387;SDS011;9320;50.256;19.026;2023-02-18T01:51:17;7.10;;;5.30;;
18387;SDS011;9320;50.256;19.026;2023-02-18T01:53:50;6.07;;;5.40;;
18387;SDS011;9320;50.256;19.026;2023-02-18T01:56:22;9.50;;;5.93;;
18387;SDS011;9320;50.256;19.026;2023-02-18T01:58:55;6.10;;;4.90;;
18387;SDS011;9320;50.256;19.026;2023-02-18T02:01:26;6.93;;;5.47;;
18387;SDS011;9320;50.256;19.026;2023-02-18T02:03:54;6.33;;;5.33;;
18387;SDS011;9320;50.256;19.026;2023-02-18T02:06:22;8.63;;;5.60;;
18387;SDS011;9320;50.256;19.026;2023-02-18T02:08:52;5.37;;;4.87;;
18387;SDS011;9320;50.256;19.026;2023-02-18T02:11:24;7.97;;;5.50;;
18387;SDS011;9320;50.256;19.026;2023-02-18T02:14:27;7.87;;;5.60;;
18387;SDS011;9320;50.256;19.026;2023-02-18T02:17:10;5.93;;;5.20;;
18387;SDS011;9320;50.256;19.026;2023-02-18T02:25:55;7.33;;;4.83;;
18387;SDS011;9320;50.256;19.026;2023-02-18T02:28:50;9.60;;;5.30;;
18387;SDS011;9320;50.256;19.026;2023-02-18T02:31:45;6.90;;;5.23;;
18387;SDS011;9320;50.256;19.026;2023-02-18T02:34:45;7.07;;;5.20;;
18387;SDS011;9320;50.256;19.026;2023-02-18T02:37:21;8.03;;;5.10;;
18387;SDS011;9320;50.256;19.026;2023-02-18T02:40:01;6.10;;;5.10;;
18387;SDS011;9320;50.256;19.026;2023-02-18T02:42:39;7.87;;;5.37;;
18387;SDS011;9320;50.256;19.026;2023-02-18T02:45:18;6.40;;;5.20;;
18387;SDS011;9320;50.256;19.026;2023-02-18T02:47:54;7.83;;;5.40;;
18387;SDS011;9320;50.256;19.026;2023-02-18T02:50:29;7.70;;;5.20;;
18387;SDS011;9320;50.256;19.026;2023-02-18T02:53:05;7.40;;;4.90;;
18387;SDS011;9320;50.256;19.026;2023-02-18T02:55:39;7.87;;;5.20;;
18387;SDS011;9320;50.256;19.026;2023-02-18T02:58:08;7.33;;;5.30;;
18387;SDS011;9320;50.256;19.026;2023-02-18T03:00:46;6.67;;;5.10;;
18387;SDS011;9320;50.256;19.026;2023-02-18T03:03:33;5.87;;;5.07;;
18387;SDS011;9320;50.256;19.026;2023-02-18T03:06:25;8.77;;;5.23;;
18387;SDS011;9320;50.256;19.026;2023-02-18T03:09:14;6.87;;;5.60;;
18387;SDS011;9320;50.256;19.026;2023-02-18T03:11:47;7.97;;;5.30;;
18387;SDS011;9320;50.256;19.026;2023-02-18T03:14:26;7.53;;;5.30;;
18387;SDS011;9320;50.256;19.026;2023-02-18T03:16:57;9.20;;;5.33;;
18387;SDS011;9320;50.256;19.026;2023-02-18T03:19:32;5.73;;;4.83;;
18387;SDS011;9320;50.256;19.026;2023-02-18T03:22:07;5.97;;;4.90;;
18387;SDS011;9320;50.256;19.026;2023-02-18T03:24:38;9.30;;;5.30;;
18387;SDS011;9320;50.256;19.026;2023-02-18T03:27:09;7.47;;;4.90;;
18387;SDS011;9320;50.256;19.026;2023-02-18T03:29:40;8.73;;;5.27;;
18387;SDS011;9320;50.256;19.026;2023-02-18T03:32:12;8.77;;;5.60;;
18387;SDS011;9320;50.256;19.026;2023-02-18T03:34:46;6.13;;;5.10;;
18387;SDS011;9320;50.256;19.026;2023-02-18T03:37:19;6.27;;;5.20;;
18387;SDS011;9320;50.256;19.026;2023-02-18T03:39:48;5.93;;;5.20;;
18387;SDS011;9320;50.256;19.026;2023-02-18T03:42:21;7.93;;;5.83;;
18387;SDS011;9320;50.256;19.026;2023-02-18T03:44:52;7.23;;;5.43;;
18387;SDS011;9320;50.256;19.026;2023-02-18T03:47:20;7.13;;;5.60;;
18387;SDS011;9320;50.256;19.026;2023-02-18T03:49:48;6.90;;;5.37;;
18387;SDS011;9320;50.256;19.026;2023-02-18T03:52:16;8.27;;;5.77;;
18387;SDS011;9320;50.256;19.026;2023-02-18T03:54:46;5.87;;;5.07;;
18387;SDS011;9320;50.256;19.026;2023-02-18T03:57:14;8.73;;;5.37;;
18387;SDS011;9320;50.256;19.026;2023-02-18T03:59:42;7.43;;;5.63;;
18387;SDS011;9320;50.256;19.026;2023-02-18T04:02:10;8.37;;;5.30;;
18387;SDS011;9320;50.256;19.026;2023-02-18T04:04:38;7.83;;;5.43;;
18387;SDS011;9320;50.256;19.026;2023-02-18T04:07:06;8.50;;;5.87;;
18387;SDS011;9320;50.256;19.026;2023-02-18T04:09:35;10.70;;;6.37;;
18387;SDS011;9320;50.256;19.026;2023-02-18T04:12:03;7.30;;;5.30;;
18387;SDS011;9320;50.256;19.026;2023-02-18T04:14:31;7.20;;;5.63;;
18387;SDS011;9320;50.256;19.026;2023-02-18T04:16:59;6.07;;;4.80;;
18387;SDS011;9320;50.256;19.026;2023-02-18T04:19:27;5.97;;;5.33;;
18387;SDS011;9320;50.256;19.026;2023-02-18T04:21:55;7.83;;;5.33;;
18387;SDS011;9320;50.256;19.026;2023-02-18T04:24:23;5.27;;;4.77;;
18387;SDS011;9320;50.256;19.026;2023-02-18T04:26:53;5.60;;;5.10;;
18387;SDS011;9320;50.256;19.026;2023-02-18T04:29:21;5.77;;;5.17;;
18387;SDS011;9320;50.256;19.026;2023-02-18T04:31:49;4.90;;;4.40;;
18387;SDS011;9320;50.256;19.026;2023-02-18T04:34:17;4.70;;;4.20;;
18387;SDS011;9320;50.256;19.026;2023-02-18T04:36:45;4.33;;;3.97;;
18387;SDS011;9320;50.256;19.026;2023-02-18T04:39:13;5.07;;;4.30;;
18387;SDS011;9320;50.256;19.026;2023-02-18T04:41:41;6.57;;;4.53;;
18387;SDS011;9320;50.256;19.026;2023-02-18T04:44:10;4.60;;;4.20;;
18387;SDS011;9320;50.256;19.026;2023-02-18T04:46:38;4.77;;;4.27;;
18387;SDS011;9320;50.256;19.026;2023-02-18T04:49:06;4.50;;;4.10;;
18387;SDS011;9320;50.256;19.026;2023-02-18T04:51:34;6.17;;;4.23;;
18387;SDS011;9320;50.256;19.026;2023-02-18T04:54:02;4.87;;;4.30;;
18387;SDS011;9320;50.256;19.026;2023-02-18T04:56:31;5.90;;;4.30;;
18387;SDS011;9320;50.256;19.026;2023-02-18T04:58:59;5.33;;;4.27;;
18387;SDS011;9320;50.256;19.026;2023-02-18T05:01:28;5.87;;;4.43;;
18387;SDS011;9320;50.256;19.026;2023-02-18T05:03:56;6.13;;;4.33;;
18387;SDS011;9320;50.256;19.026;2023-02-18T05:06:24;6.40;;;4.60;;
18387;SDS011;9320;50.256;19.026;2023-02-18T05:08:52;8.67;;;5.07;;
18387;SDS011;9320;50.256;19.026;2023-02-18T05:11:20;7.93;;;5.30;;
18387;SDS011;9320;50.256;19.026;2023-02-18T05:13:48;5.60;;;4.57;;
18387;SDS011;9320;50.256;19.026;2023-02-18T05:16:16;7.17;;;4.73;;
18387;SDS011;9320;50.256;19.026;2023-02-18T05:18:46;7.47;;;4.70;;
18387;SDS011;9320;50.256;19.026;2023-02-18T05:21:14;5.37;;;4.50;;
18387;SDS011;9320;50.256;19.026;2023-02-18T05:23:41;6.43;;;4.47;;
18387;SDS011;9320;50.256;19.026;2023-02-18T05:26:09;6.00;;;4.07;;
18387;SDS011;9320;50.256;19.026;2023-02-18T05:28:37;6.07;;;4.23;;
18387;SDS011;9320;50.256;19.026;2023-02-18T05:31:05;4.93;;;4.17;;
18387;SDS011;9320;50.256;19.026;2023-02-18T05:33:34;5.33;;;4.60;;
18387;SDS011;9320;50.256;19.026;2023-02-18T05:36:03;6.07;;;4.27;;
18387;SDS011;9320;50.256;19.026;2023-02-18T05:38:32;5.00;;;4.20;;
18387;SDS011;9320;50.256;19.026;2023-02-18T05:41:00;6.83;;;4.60;;
18387;SDS011;9320;50.256;19.026;2023-02-18T05:43:28;7.67;;;5.03;;
18387;SDS011;9320;50.256;19.026;2023-02-18T05:45:56;6.27;;;4.80;;
18387;SDS011;9320;50.256;19.026;2023-02-18T05:48:24;7.27;;;4.70;;
18387;SDS011;9320;50.256;19.026;2023-02-18T05:50:52;7.80;;;4.60;;
18387;SDS011;9320;50.256;19.026;2023-02-18T05:53:22;7.97;;;4.83;;
18387;SDS011;9320;50.256;19.026;2023-02-18T05:55:50;7.53;;;4.60;;
18387;SDS011;9320;50.256;19.026;2023-02-18T05:58:18;6.33;;;4.73;;
18387;SDS011;9320;50.256;19.026;2023-02-18T06:00:46;5.93;;;4.13;;
18387;SDS011;9320;50.256;19.026;2023-02-18T06:03:14;7.37;;;4.63;;
18387;SDS011;9320;50.256;19.026;2023-02-18T06:05:42;9.27;;;4.37;;
18387;SDS011;9320;50.256;19.026;2023-02-18T06:08:10;8.20;;;5.00;;
18387;SDS011;9320;50.256;19.026;2023-02-18T06:10:40;5.73;;;4.50;;
18387;SDS011;9320;50.256;19.026;2023-02-18T06:13:08;4.43;;;3.97;;
18387;SDS011;9320;50.256;19.026;2023-02-18T06:15:36;7.33;;;4.30;;
18387;SDS011;9320;50.256;19.026;2023-02-18T06:18:05;4.57;;;4.10;;
18387;SDS011;9320;50.256;19.026;2023-02-18T06:20:33;4.30;;;3.80;;
18387;SDS011;9320;50.256;19.026;2023-02-18T06:23:01;5.47;;;4.20;;
18387;SDS011;9320;50.256;19.026;2023-02-18T06:25:29;9.20;;;4.13;;
18387;SDS011;9320;50.256;19.026;2023-02-18T06:27:58;5.00;;;4.13;;
18387;SDS011;9320;50.256;19.026;2023-02-18T06:30:26;4.93;;;4.10;;
18387;SDS011;9320;50.256;19.026;2023-02-18T06:32:54;4.87;;;4.20;;
18387;SDS011;9320;50.256;19.026;2023-02-18T06:35:22;4.50;;;4.10;;
18387;SDS011;9320;50.256;19.026;2023-02-18T06:37:50;4.53;;;4.10;;
18387;SDS011;9320;50.256;19.026;2023-02-18T06:40:19;4.20;;;3.80;;
18387;SDS011;9320;50.256;19.026;2023-02-18T06:42:47;4.50;;;4.10;;
18387;SDS011;9320;50.256;19.026;2023-02-18T06:45:23;5.90;;;4.20;;
18387;SDS011;9320;50.256;19.026;2023-02-18T06:47:51;5.50;;;4.17;;
18387;SDS011;9320;50.256;19.026;2023-02-18T06:50:19;5.73;;;4.33;;
18387;SDS011;9320;50.256;19.026;2023-02-18T06:52:47;6.07;;;4.10;;
18387;SDS011;9320;50.256;19.026;2023-02-18T06:55:15;5.23;;;4.10;;
18387;SDS011;9320;50.256;19.026;2023-02-18T06:57:43;5.30;;;4.30;;
18387;SDS011;9320;50.256;19.026;2023-02-18T07:00:12;6.53;;;4.87;;
18387;SDS011;9320;50.256;19.026;2023-02-18T07:02:41;6.60;;;4.60;;
18387;SDS011;9320;50.256;19.026;2023-02-18T07:05:09;4.90;;;4.10;;
18387;SDS011;9320;50.256;19.026;2023-02-18T07:07:38;5.13;;;3.80;;
18387;SDS011;9320;50.256;19.026;2023-02-18T07:10:06;5.73;;;4.30;;
18387;SDS011;9320;50.256;19.026;2023-02-18T07:12:35;6.17;;;4.60;;
18387;SDS011;9320;50.256;19.026;2023-02-18T07:15:03;6.67;;;4.47;;
18387;SDS011;9320;50.256;19.026;2023-02-18T07:17:31;5.30;;;4.27;;
18387;SDS011;9320;50.256;19.026;2023-02-18T07:20:01;5.33;;;4.20;;
18387;SDS011;9320;50.256;19.026;2023-02-18T07:22:29;5.30;;;4.17;;
18387;SDS011;9320;50.256;19.026;2023-02-18T07:24:57;5.50;;;4.27;;
18387;SDS011;9320;50.256;19.026;2023-02-18T07:27:25;5.90;;;4.10;;
18387;SDS011;9320;50.256;19.026;2023-02-18T07:29:54;8.67;;;4.57;;
18387;SDS011;9320;50.256;19.026;2023-02-18T07:32:22;5.50;;;4.33;;
18387;SDS011;9320;50.256;19.026;2023-02-18T07:34:50;7.17;;;4.87;;
18387;SDS011;9320;50.256;19.026;2023-02-18T07:37:19;6.77;;;4.60;;
18387;SDS011;9320;50.256;19.026;2023-02-18T07:39:47;10.10;;;4.47;;
18387;SDS011;9320;50.256;19.026;2023-02-18T07:42:16;5.50;;;4.70;;
18387;SDS011;9320;50.256;19.026;2023-02-18T07:44:47;6.00;;;4.70;;
18387;SDS011;9320;50.256;19.026;2023-02-18T07:47:15;7.97;;;5.17;;
18387;SDS011;9320;50.256;19.026;2023-02-18T07:49:46;8.93;;;5.57;;
18387;SDS011;9320;50.256;19.026;2023-02-18T07:52:15;8.07;;;4.60;;
18387;SDS011;9320;50.256;19.026;2023-02-18T07:54:44;7.43;;;4.77;;
18387;SDS011;9320;50.256;19.026;2023-02-18T07:57:12;8.40;;;4.97;;
18387;SDS011;9320;50.256;19.026;2023-02-18T07:59:41;10.73;;;4.97;;
18387;SDS011;9320;50.256;19.026;2023-02-18T08:02:10;8.73;;;5.43;;
18387;SDS011;9320;50.256;19.026;2023-02-18T08:04:44;7.87;;;4.90;;
18387;SDS011;9320;50.256;19.026;2023-02-18T08:07:16;6.50;;;5.17;;
18387;SDS011;9320;50.256;19.026;2023-02-18T08:09:46;11.23;;;5.40;;
18387;SDS011;9320;50.256;19.026;2023-02-18T08:12:16;8.97;;;5.50;;
18387;SDS011;9320;50.256;19.026;2023-02-18T08:14:44;5.97;;;4.97;;
18387;SDS011;9320;50.256;19.026;2023-02-18T08:17:12;10.47;;;5.83;;
18387;SDS011;9320;50.256;19.026;2023-02-18T08:19:40;7.63;;;5.10;;
18387;SDS011;9320;50.256;19.026;2023-02-18T08:22:09;8.27;;;5.17;;
18387;SDS011;9320;50.256;19.026;2023-02-18T08:24:37;7.70;;;5.00;;
18387;SDS011;9320;50.256;19.026;2023-02-18T08:27:07;9.23;;;4.77;;
18387;SDS011;9320;50.256;19.026;2023-02-18T08:29:35;7.23;;;5.40;;
18387;SDS011;9320;50.256;19.026;2023-02-18T08:32:03;10.07;;;5.50;;
18387;SDS011;9320;50.256;19.026;2023-02-18T08:34:31;12.07;;;6.30;;
18387;SDS011;9320;50.256;19.026;2023-02-18T08:37:00;11.30;;;6.07;;
18387;SDS011;9320;50.256;19.026;2023-02-18T08:39:32;11.83;;;6.50;;
18387;SDS011;9320;50.256;19.026;2023-02-18T08:42:02;9.60;;;6.00;;
18387;SDS011;9320;50.256;19.026;2023-02-18T08:44:32;10.50;;;6.07;;
18387;SDS011;9320;50.256;19.026;2023-02-18T08:47:00;11.33;;;5.97;;
18387;SDS011;9320;50.256;19.026;2023-02-18T08:49:28;8.20;;;5.37;;
18387;SDS011;9320;50.256;19.026;2023-02-18T08:51:56;10.07;;;5.60;;
18387;SDS011;9320;50.256;19.026;2023-02-18T08:54:24;10.47;;;5.83;;
18387;SDS011;9320;50.256;19.026;2023-02-18T08:56:53;21.57;;;7.67;;
18387;SDS011;9320;50.256;19.026;2023-02-18T08:59:23;13.73;;;7.23;;
18387;SDS011;9320;50.256;19.026;2023-02-18T09:01:52;9.90;;;6.10;;
18387;SDS011;9320;50.256;19.026;2023-02-18T09:04:20;10.13;;;5.93;;
18387;SDS011;9320;50.256;19.026;2023-02-18T09:06:48;11.67;;;6.50;;
18387;SDS011;9320;50.256;19.026;2023-02-18T09:09:17;9.37;;;5.83;;
18387;SDS011;9320;50.256;19.026;2023-02-18T09:11:45;10.73;;;5.77;;
18387;SDS011;9320;50.256;19.026;2023-02-18T09:14:13;8.97;;;5.50;;
18387;SDS011;9320;50.256;19.026;2023-02-18T09:16:41;7.00;;;5.17;;
18387;SDS011;9320;50.256;19.026;2023-02-18T09:19:11;7.57;;;5.00;;
18387;SDS011;9320;50.256;19.026;2023-02-18T09:21:39;12.07;;;5.43;;
18387;SDS011;9320;50.256;19.026;2023-02-18T09:24:07;8.93;;;5.63;;
18387;SDS011;9320;50.256;19.026;2023-02-18T09:26:35;9.50;;;5.80;;
18387;SDS011;9320;50.256;19.026;2023-02-18T09:29:05;13.60;;;6.20;;
18387;SDS011;9320;50.256;19.026;2023-02-18T09:31:33;11.57;;;5.63;;
18387;SDS011;9320;50.256;19.026;2023-02-18T09:34:01;15.07;;;7.43;;
18387;SDS011;9320;50.256;19.026;2023-02-18T09:36:30;10.97;;;6.47;;
18387;SDS011;9320;50.256;19.026;2023-02-18T09:38:59;13.97;;;6.93;;
18387;SDS011;9320;50.256;19.026;2023-02-18T09:41:31;10.70;;;6.60;;
18387;SDS011;9320;50.256;19.026;2023-02-18T09:44:08;14.13;;;6.43;;
18387;SDS011;9320;50.256;19.026;2023-02-18T09:46:40;12.30;;;5.90;;
18387;SDS011;9320;50.256;19.026;2023-02-18T09:49:13;10.20;;;5.67;;
18387;SDS011;9320;50.256;19.026;2023-02-18T09:51:46;10.30;;;6.00;;
18387;SDS011;9320;50.256;19.026;2023-02-18T09:54:15;12.70;;;6.20;;
18387;SDS011;9320;50.256;19.026;2023-02-18T09:56:45;13.33;;;6.83;;
18387;SDS011;9320;50.256;19.026;2023-02-18T09:59:15;9.83;;;5.63;;
18387;SDS011;9320;50.256;19.026;2023-02-18T10:01:45;7.37;;;4.87;;
18387;SDS011;9320;50.256;19.026;2023-02-18T10:04:18;8.77;;;5.67;;
18387;SDS011;9320;50.256;19.026;2023-02-18T10:06:50;11.47;;;5.30;;
18387;SDS011;9320;50.256;19.026;2023-02-18T10:09:20;8.60;;;4.70;;
18387;SDS011;9320;50.256;19.026;2023-02-18T10:11:54;7.77;;;4.97;;
18387;SDS011;9320;50.256;19.026;2023-02-18T10:14:24;7.60;;;4.60;;
18387;SDS011;9320;50.256;19.026;2023-02-18T10:16:52;11.93;;;7.37;;
18387;SDS011;9320;50.256;19.026;2023-02-18T10:19:22;11.87;;;6.33;;
18387;SDS011;9320;50.256;19.026;2023-02-18T10:21:55;7.47;;;4.80;;
18387;SDS011;9320;50.256;19.026;2023-02-18T10:24:29;11.80;;;5.17;;
18387;SDS011;9320;50.256;19.026;2023-02-18T10:26:59;8.73;;;4.73;;
18387;SDS011;9320;50.256;19.026;2023-02-18T10:29:30;10.50;;;6.20;;
18387;SDS011;9320;50.256;19.026;2023-02-18T10:31:58;10.13;;;6.00;;
18387;SDS011;9320;50.256;19.026;2023-02-18T10:34:40;11.23;;;6.70;;
18387;SDS011;9320;50.256;19.026;2023-02-18T10:37:18;13.60;;;6.37;;
18387;SDS011;9320;50.256;19.026;2023-02-18T10:39:59;14.67;;;7.00;;
18387;SDS011;9320;50.256;19.026;2023-02-18T10:42:38;9.23;;;6.00;;
18387;SDS011;9320;50.256;19.026;2023-02-18T10:45:17;9.57;;;6.33;;
18387;SDS011;9320;50.256;19.026;2023-02-18T10:47:55;10.80;;;6.67;;
18387;SDS011;9320;50.256;19.026;2023-02-18T10:50:32;12.13;;;7.53;;
18387;SDS011;9320;50.256;19.026;2023-02-18T10:53:10;14.87;;;5.73;;
18387;SDS011;9320;50.256;19.026;2023-02-18T10:55:41;10.97;;;5.63;;
18387;SDS011;9320;50.256;19.026;2023-02-18T10:58:23;9.80;;;6.27;;
18387;SDS011;9320;50.256;19.026;2023-02-18T11:00:54;15.00;;;7.53;;
18387;SDS011;9320;50.256;19.026;2023-02-18T11:03:22;9.90;;;6.53;;
18387;SDS011;9320;50.256;19.026;2023-02-18T11:05:52;14.30;;;8.37;;
18387;SDS011;9320;50.256;19.026;2023-02-18T11:08:23;18.23;;;8.40;;
18387;SDS011;9320;50.256;19.026;2023-02-18T11:10:55;14.07;;;9.33;;
18387;SDS011;9320;50.256;19.026;2023-02-18T11:13:24;15.43;;;9.63;;
18387;SDS011;9320;50.256;19.026;2023-02-18T11:15:55;13.37;;;8.27;;
18387;SDS011;9320;50.256;19.026;2023-02-18T11:18:27;13.27;;;7.90;;
18387;SDS011;9320;50.256;19.026;2023-02-18T11:21:01;11.53;;;7.37;;
18387;SDS011;9320;50.256;19.026;2023-02-18T11:23:32;9.77;;;6.97;;
18387;SDS011;9320;50.256;19.026;2023-02-18T11:26:13;10.47;;;7.23;;
18387;SDS011;9320;50.256;19.026;2023-02-18T11:28:44;10.30;;;6.93;;
18387;SDS011;9320;50.256;19.026;2023-02-18T11:31:15;19.93;;;7.43;;
18387;SDS011;9320;50.256;19.026;2023-02-18T11:33:49;10.70;;;6.50;;
18387;SDS011;9320;50.256;19.026;2023-02-18T11:36:23;11.00;;;7.80;;
18387;SDS011;9320;50.256;19.026;2023-02-18T11:38:56;9.77;;;7.37;;
18387;SDS011;9320;50.256;19.026;2023-02-18T11:41:29;12.47;;;8.33;;
18387;SDS011;9320;50.256;19.026;2023-02-18T11:44:00;11.23;;;7.03;;
18387;SDS011;9320;50.256;19.026;2023-02-18T11:46:31;14.10;;;7.60;;
18387;SDS011;9320;50.256;19.026;2023-02-18T11:49:09;12.60;;;8.10;;
18387;SDS011;9320;50.256;19.026;2023-02-18T11:51:48;11.87;;;7.10;;
18387;SDS011;9320;50.256;19.026;2023-02-18T11:54:22;10.23;;;6.47;;
18387;SDS011;9320;50.256;19.026;2023-02-18T11:56:54;9.80;;;6.50;;
18387;SDS011;9320;50.256;19.026;2023-02-18T11:59:23;9.40;;;6.80;;
18387;SDS011;9320;50.256;19.026;2023-02-18T12:01:53;12.77;;;7.90;;
18387;SDS011;9320;50.256;19.026;2023-02-18T12:04:26;19.23;;;10.63;;
18387;SDS011;9320;50.256;19.026;2023-02-18T12:07:00;12.07;;;8.27;;
18387;SDS011;9320;50.256;19.026;2023-02-18T12:09:41;13.37;;;8.90;;
18387;SDS011;9320;50.256;19.026;2023-02-18T12:12:14;18.63;;;10.07;;
18387;SDS011;9320;50.256;19.026;2023-02-18T12:14:45;17.13;;;8.47;;
18387;SDS011;9320;50.256;19.026;2023-02-18T12:17:19;14.60;;;8.63;;
18387;SDS011;9320;50.256;19.026;2023-02-18T12:20:15;22.50;;;11.67;;
18387;SDS011;9320;50.256;19.026;2023-02-18T12:22:53;20.17;;;10.90;;
18387;SDS011;9320;50.256;19.026;2023-02-18T12:25:31;18.10;;;10.47;;
18387;SDS011;9320;50.256;19.026;2023-02-18T12:28:08;16.87;;;9.97;;
18387;SDS011;9320;50.256;19.026;2023-02-18T12:31:00;18.97;;;11.27;;
18387;SDS011;9320;50.256;19.026;2023-02-18T12:33:40;20.60;;;11.40;;
18387;SDS011;9320;50.256;19.026;2023-02-18T12:36:21;18.63;;;10.47;;
18387;SDS011;9320;50.256;19.026;2023-02-18T12:39:01;18.87;;;12.00;;
18387;SDS011;9320;50.256;19.026;2023-02-18T12:41:40;17.60;;;9.93;;
18387;SDS011;9320;50.256;19.026;2023-02-18T12:44:24;17.00;;;9.53;;
18387;SDS011;9320;50.256;19.026;2023-02-18T12:47:26;17.73;;;9.87;;
18387;SDS011;9320;50.256;19.026;2023-02-18T12:53:04;23.50;;;15.27;;
18387;SDS011;9320;50.256;19.026;2023-02-18T12:55:45;19.47;;;11.30;;
18387;SDS011;9320;50.256;19.026;2023-02-18T12:58:31;17.90;;;11.57;;
18387;SDS011;9320;50.256;19.026;2023-02-18T13:01:15;20.53;;;10.13;;
18387;SDS011;9320;50.256;19.026;2023-02-18T13:04:00;19.63;;;10.90;;
18387;SDS011;9320;50.256;19.026;2023-02-18T13:06:56;21.30;;;10.80;;
18387;SDS011;9320;50.256;19.026;2023-02-18T13:09:47;19.43;;;9.70;;
18387;SDS011;9320;50.256;19.026;2023-02-18T13:12:28;28.70;;;14.70;;
18387;SDS011;9320;50.256;19.026;2023-02-18T13:15:03;29.47;;;15.87;;
18387;SDS011;9320;50.256;19.026;2023-02-18T13:17:39;31.37;;;16.10;;
18387;SDS011;9320;50.256;19.026;2023-02-18T13:20:13;23.93;;;14.37;;
18387;SDS011;9320;50.256;19.026;2023-02-18T13:22:47;22.63;;;13.00;;
18387;SDS011;9320;50.256;19.026;2023-02-18T13:25:16;18.40;;;10.77;;
18387;SDS011;9320;50.256;19.026;2023-02-18T13:27:47;19.70;;;12.17;;
18387;SDS011;9320;50.256;19.026;2023-02-18T13:30:24;29.27;;;15.00;;
18387;SDS011;9320;50.256;19.026;2023-02-18T13:33:04;25.57;;;15.10;;
18387;SDS011;9320;50.256;19.026;2023-02-18T13:35:41;27.93;;;16.53;;
18387;SDS011;9320;50.256;19.026;2023-02-18T13:38:25;29.37;;;18.07;;
18387;SDS011;9320;50.256;19.026;2023-02-18T13:41:12;33.40;;;19.57;;
18387;SDS011;9320;50.256;19.026;2023-02-18T13:43:40;31.13;;;16.87;;
18387;SDS011;9320;50.256;19.026;2023-02-18T13:46:14;25.37;;;14.17;;
18387;SDS011;9320;50.256;19.026;2023-02-18T13:48:45;21.43;;;12.43;;
18387;SDS011;9320;50.256;19.026;2023-02-18T13:51:26;19.70;;;12.00;;
18387;SDS011;9320;50.256;19.026;2023-02-18T13:53:59;20.77;;;10.73;;
18387;SDS011;9320;50.256;19.026;2023-02-18T13:56:31;23.97;;;11.30;;
18387;SDS011;9320;50.256;19.026;2023-02-18T13:59:05;18.73;;;11.13;;
18387;SDS011;9320;50.256;19.026;2023-02-18T14:01:39;25.50;;;14.80;;
18387;SDS011;9320;50.256;19.026;2023-02-18T14:07:22;23.63;;;12.90;;
18387;SDS011;9320;50.256;19.026;2023-02-18T14:09:56;25.27;;;12.67;;
18387;SDS011;9320;50.256;19.026;2023-02-18T14:12:33;22.83;;;13.60;;
18387;SDS011;9320;50.256;19.026;2023-02-18T14:18:20;22.47;;;13.93;;
18387;SDS011;9320;50.256;19.026;2023-02-18T14:20:51;25.07;;;14.63;;
18387;SDS011;9320;50.256;19.026;2023-02-18T14:26:32;23.20;;;13.30;;
18387;SDS011;9320;50.256;19.026;2023-02-18T14:29:10;22.03;;;12.97;;
18387;SDS011;9320;50.256;19.026;2023-02-18T14:31:48;21.20;;;13.20;;
18387;SDS011;9320;50.256;19.026;2023-02-18T14:34:25;25.57;;;16.10;;
18387;SDS011;9320;50.256;19.026;2023-02-18T14:37:06;30.20;;;16.67;;
18387;SDS011;9320;50.256;19.026;2023-02-18T14:39:46;28.57;;;16.00;;
18387;SDS011;9320;50.256;19.026;2023-02-18T14:42:23;39.30;;;20.03;;
18387;SDS011;9320;50.256;19.026;2023-02-18T14:45:08;28.97;;;19.87;;
18387;SDS011;9320;50.256;19.026;2023-02-18T14:47:52;36.47;;;22.67;;
18387;SDS011;9320;50.256;19.026;2023-02-18T14:50:34;37.87;;;22.53;;
18387;SDS011;9320;50.256;19.026;2023-02-18T14:53:05;33.80;;;19.77;;
18387;SDS011;9320;50.256;19.026;2023-02-18T14:55:39;40.63;;;21.60;;
18387;SDS011;9320;50.256;19.026;2023-02-18T14:58:14;53.07;;;26.13;;
18387;SDS011;9320;50.256;19.026;2023-02-18T15:00:52;39.30;;;22.77;;
18387;SDS011;9320;50.256;19.026;2023-02-18T15:03:20;45.77;;;23.97;;
18387;SDS011;9320;50.256;19.026;2023-02-18T15:05:51;43.63;;;24.30;;
18387;SDS011;9320;50.256;19.026;2023-02-18T15:08:20;38.23;;;22.90;;
18387;SDS011;9320;50.256;19.026;2023-02-18T15:10:50;38.87;;;21.03;;
18387;SDS011;9320;50.256;19.026;2023-02-18T15:13:24;34.07;;;18.70;;
18387;SDS011;9320;50.256;19.026;2023-02-18T15:15:55;29.80;;;17.00;;
18387;SDS011;9320;50.256;19.026;2023-02-18T15:18:27;31.80;;;17.53;;
18387;SDS011;9320;50.256;19.026;2023-02-18T15:21:00;32.37;;;17.83;;
18387;SDS011;9320;50.256;19.026;2023-02-18T15:23:29;35.67;;;18.43;;
18387;SDS011;9320;50.256;19.026;2023-02-18T15:26:01;33.93;;;18.53;;